^^
Meteo Knjazevac Station Historical Data
Daily Summary for January 7, 2022 Units:  English    Metric   Both
Daily Weekly Monthly Yearly Custom
  High: Low: Average:
Temperature: 91.1 °F 63.1 °F 75.5 °F
Dew Point: 71.2 °F 57.9 °F 64.9 °F
Humidity: 92.6% 49% 71%
Wind Speed: 17mph 0mph 3.9mph
Wind Gust: 17mph - -
Wind- - South
Pressure: 30.06 in 29.94 in -
Precipitation: 0.00 in    
Historical Graphs
 
 
Tabular Data for January 7, 2022
Time Temperature Dew Point Pressure Wind Wind Speed Wind Gust Humidity Rainfall Rate (Hourly) solar Conditions
00:04 72.7 °F 59.8 °F 29.95 in West 4.4 mph 4.2 mph 64% 0.00 in 0 W/m2
00:09 72.9 °F 60 °F 29.95 in West 3 mph 6 mph 64% 0.00 in 0 W/m2
00:14 72.9 °F 59.8 °F 29.95 in NW 2.3 mph 3 mph 63.6% 0.00 in 0 W/m2
00:19 72.9 °F 59.7 °F 29.95 in SSW 1.2 mph 2 mph 63.5% 0.00 in 0 W/m2
00:24 72.9 °F 59.9 °F 29.95 in SW 2.3 mph 2.2 mph 63.8% 0.00 in 0 W/m2
00:29 72.8 °F 60.3 °F 29.94 in West 1.2 mph 2 mph 64.8% 0.00 in 0 W/m2
00:34 72.8 °F 60.3 °F 29.95 in NNW 3.3 mph 3.6 mph 64.9% 0.00 in 0 W/m2
00:39 73 °F 60.2 °F 29.95 in NNE 2 mph 5 mph 64.3% 0.00 in 0 W/m2
00:44 72.9 °F 60.5 °F 29.95 in NNE 1.2 mph 2 mph 65% 0.00 in 0 W/m2
00:49 72.8 °F 60.3 °F 29.95 in NW 2.2 mph 2.2 mph 65% 0.00 in 0 W/m2
00:54 72.4 °F 60 °F 29.95 in West 2.7 mph 3 mph 65% 0.00 in 0 W/m2
00:59 72.3 °F 59.9 °F 29.95 in ENE 1.7 mph 3 mph 65% 0.00 in 0 W/m2
01:04 72.3 °F 59.9 °F 29.95 in NE 4.1 mph 3 mph 65% 0.00 in 0 W/m2
01:09 72.3 °F 60 °F 29.95 in NE 4 mph 5 mph 65.1% 0.00 in 0 W/m2
01:14 72.5 °F 60.9 °F 29.95 in NE 2.7 mph 4 mph 67% 0.00 in 0 W/m2
01:19 72.5 °F 60.9 °F 29.95 in NNE 1.9 mph 3 mph 67% 0.00 in 0 W/m2
01:24 72.4 °F 60.8 °F 29.95 in WNW 0.9 mph 2 mph 67% 0.00 in 0 W/m2
01:29 72.3 °F 60.7 °F 29.95 in NW 2 mph 2 mph 67% 0.00 in 0 W/m2
01:34 72.2 °F 61 °F 29.95 in North 1.2 mph 3 mph 67.7% 0.00 in 0 W/m2
01:39 72 °F 60.9 °F 29.95 in North 1.9 mph 1.1 mph 68% 0.00 in 0 W/m2
01:44 71.8 °F 60.6 °F 29.95 in North 1.2 mph 2 mph 68% 0.00 in 0 W/m2
01:49 71.6 °F 60.5 °F 29.95 in SE 1.3 mph 2 mph 68% 0.00 in 0 W/m2
01:54 71.3 °F 60.4 °F 29.95 in SW 2.4 mph 2 mph 68.5% 0.00 in 0 W/m2
01:59 71.1 °F 60.4 °F 29.95 in West 3.7 mph 3.1 mph 69% 0.00 in 0 W/m2
02:04 70.8 °F 60.3 °F 29.95 in West 3.9 mph 5 mph 69.4% 0.00 in 0 W/m2
02:09 70.4 °F 60.2 °F 29.95 in West 5.6 mph 5 mph 70% 0.00 in 0 W/m2
02:14 70.1 °F 60.5 °F 29.95 in West 3.6 mph 2.7 mph 71.7% 0.00 in 0 W/m2
02:19 70 °F 59.8 °F 29.95 in NW 2.1 mph 5 mph 70.4% 0.00 in 0 W/m2
02:24 69.8 °F 60.3 °F 29.95 in North 0.5 mph 2 mph 71.6% 0.00 in 0 W/m2
02:29 69.7 °F 60.3 °F 29.96 in North 1.4 mph 2 mph 72.1% 0.00 in 0 W/m2
02:34 69.4 °F 60.4 °F 29.95 in NNW 1.1 mph 0.9 mph 73% 0.00 in 0 W/m2
02:39 69.2 °F 60.5 °F 29.96 in Calm   2 mph 73.9% 0.00 in 0 W/m2
02:44 69 °F 60.4 °F 29.96 in Calm     74% 0.00 in 0 W/m2
02:49 68.8 °F 60.3 °F 29.96 in SW 1.5 mph 1.1 mph 74.4% 0.00 in 0 W/m2
02:54 68.5 °F 60.3 °F 29.96 in WSW 1.4 mph 2 mph 75% 0.00 in 0 W/m2
02:59 68.3 °F 60 °F 29.96 in NW 2 mph 2 mph 74.9% 0.00 in 0 W/m2
03:04 68.2 °F 59.9 °F 29.96 in North 2.3 mph 2 mph 74.9% 0.00 in 0 W/m2
03:09 67.9 °F 60.2 °F 29.97 in NNW 1.2 mph 2 mph 76.2% 0.00 in 0 W/m2
03:14 67.7 °F 60.3 °F 29.97 in West 1.2 mph 1.1 mph 77% 0.00 in 0 W/m2
03:19 67.5 °F 60.1 °F 29.97 in WNW 1.8 mph 1.3 mph 77% 0.00 in 0 W/m2
03:24 67.4 °F 59.9 °F 29.97 in North 1.2 mph 2 mph 77% 0.00 in 0 W/m2
03:29 67.3 °F 59.8 °F 29.97 in North 1 mph 2 mph 77% 0.00 in 0 W/m2
03:34 67.1 °F 59.8 °F 29.97 in North 2.2 mph 2.7 mph 77.5% 0.00 in 0 W/m2
03:39 67 °F 59.9 °F 29.97 in NNE 3.1 mph 4 mph 78% 0.00 in 0 W/m2
03:44 66.9 °F 59.9 °F 29.97 in NNE 2.2 mph 3 mph 78.3% 0.00 in 0 W/m2
03:49 67 °F 60 °F 29.97 in NNE 1.8 mph 3 mph 78.3% 0.00 in 0 W/m2
03:54 66.7 °F 59.7 °F 29.97 in NNW 2.3 mph 2 mph 78% 0.00 in 0 W/m2
03:59 66.4 °F 59.3 °F 29.97 in WSW 2.6 mph 3 mph 78% 0.00 in 0 W/m2
04:04 66 °F 59.3 °F 29.97 in West 0.6 mph 3 mph 79% 0.00 in 0 W/m2
04:09 65.7 °F 59 °F 29.98 in North 1.3 mph 1.3 mph 79% 0.00 in 0 W/m2
04:14 65.7 °F 59 °F 29.98 in North 1.2 mph 2 mph 79% 0.00 in 0 W/m2
04:19 65.5 °F 58.8 °F 29.98 in NNW 1.4 mph 2 mph 79% 0.00 in 0 W/m2
04:24 65.5 °F 58.8 °F 29.98 in NNW 0.8 mph 2 mph 79% 0.00 in 0 W/m2
04:29 65.4 °F 58.9 °F 29.98 in North 1.3 mph 2 mph 79.4% 0.00 in 0 W/m2
04:34 65.2 °F 58.9 °F 29.98 in North 0.9 mph 0.4 mph 80% 0.00 in 0 W/m2
04:39 65 °F 58.7 °F 29.98 in WNW 0.3 mph 1.1 mph 80% 0.00 in 0 W/m2
04:44 64.8 °F 58.4 °F 29.98 in West 1.2 mph 1.1 mph 80% 0.00 in 0 W/m2
04:49 64.6 °F 58.4 °F 29.98 in NW 0.2 mph 2 mph 80.2% 0.00 in 0 W/m2
04:54 64.4 °F 58.5 °F 29.98 in NW 1 mph 1 mph 81% 0.00 in 0 W/m2
04:59 64.2 °F 58.3 °F 29.98 in WSW 2.1 mph 2 mph 81% 0.00 in 0 W/m2
05:04 64 °F 58.1 °F 29.98 in WSW 0.2 mph 0.7 mph 81% 0.00 in 0 W/m2
05:09 63.9 °F 58.5 °F 29.98 in North 0.7 mph 0.7 mph 82.5% 0.00 in 0 W/m2
05:14 63.8 °F 58.5 °F 29.98 in NW 1.9 mph 2 mph 83% 0.00 in 0 W/m2
05:19 63.7 °F 58.4 °F 29.99 in West 2 mph 2 mph 83% 0.00 in 1 W/m2
05:24 63.5 °F 58.2 °F 29.98 in West 0.7 mph 2 mph 83% 0.00 in 3 W/m2
05:29 63.5 °F 58.2 °F 29.99 in WSW 1.3 mph 2 mph 83% 0.00 in 4 W/m2
05:34 63.4 °F 58.2 °F 29.99 in NNW 1.6 mph 2 mph 83% 0.00 in 6 W/m2
05:39 63.3 °F 58.1 °F 29.99 in North 0.2 mph 0.7 mph 83% 0.00 in 10 W/m2
05:44 63.1 °F 57.9 °F 29.99 in Calm     83% 0.00 in 13 W/m2
05:49 63.1 °F 58 °F 29.99 in North 0.8 mph 1.1 mph 83.2% 0.00 in 18 W/m2
05:54 63.1 °F 58.2 °F 29.99 in North 1.5 mph 2 mph 84% 0.00 in 20 W/m2
05:59 63.1 °F 58.2 °F 29.99 in North 1.3 mph 2 mph 84% 0.00 in 26 W/m2
06:04 63.1 °F 58.2 °F 30.00 in NNW 0.9 mph 2 mph 84% 0.00 in 34 W/m2
06:09 63.3 °F 58.4 °F 30.00 in WNW 1.4 mph 2 mph 84% 0.00 in 43 W/m2
06:14 63.2 °F 58.3 °F 30.00 in WNW 2.2 mph 2 mph 84% 0.00 in 54 W/m2
06:19 63.1 °F 58.2 °F 30.01 in WNW 2.2 mph 1.3 mph 84% 0.00 in 62 W/m2
06:24 63.1 °F 58.2 °F 30.01 in WNW 1.9 mph 2 mph 84% 0.00 in 73 W/m2
06:29 63.1 °F 58.2 °F 30.01 in WNW 2.3 mph 2 mph 84% 0.00 in 83 W/m2
06:34 63.1 °F 58.2 °F 30.01 in West 1.8 mph 2 mph 84% 0.00 in 91 W/m2
06:39 63.1 °F 58.2 °F 30.01 in West 2 mph 2 mph 84% 0.00 in 102 W/m2
06:44 63.3 °F 58.4 °F 30.01 in NNW 1.2 mph 2 mph 84% 0.00 in 102 W/m2
06:49 63.8 °F 58.8 °F 30.01 in NNE 2.3 mph 2 mph 84% 0.00 in 73 W/m2
06:54 64 °F 59 °F 30.01 in SE 2.3 mph 2 mph 83.7% 0.00 in 58 W/m2
06:59 64 °F 59.1 °F 30.01 in SW 2.3 mph 3 mph 84% 0.00 in 63 W/m2
07:04 64 °F 59.2 °F 30.01 in WSW 2.3 mph 1.6 mph 84.3% 0.00 in 70 W/m2
07:09 64 °F 59.2 °F 30.01 in West 2.3 mph 2 mph 84.2% 0.00 in 95 W/m2
07:14 64.1 °F 59.2 °F 30.01 in West 1.4 mph 2 mph 83.8% 0.00 in 142 W/m2
07:19 64.4 °F 59.4 °F 30.02 in NNW 2.9 mph 2.7 mph 83.7% 0.00 in 163 W/m2
07:24 64.9 °F 59.9 °F 30.02 in North 1.2 mph 4 mph 83.8% 0.00 in 272 W/m2
07:29 65.6 °F 60.4 °F 30.02 in ENE 0.7 mph 2 mph 83.2% 0.00 in 282 W/m2
07:34 66 °F 60.1 °F 30.02 in East 0.8 mph 1 mph 81.5% 0.00 in 293 W/m2
07:39 66.5 °F 60.5 °F 30.02 in WNW 1 mph 2 mph 81% 0.00 in 317 W/m2
07:44 67 °F 61 °F 30.02 in NW 1.6 mph 2 mph 81% 0.00 in 317 W/m2
07:49 67.5 °F 61.2 °F 30.03 in NNW 1.3 mph 2 mph 80.4% 0.00 in 273 W/m2
07:54 68 °F 61.4 °F 30.03 in NW 1.1 mph 2 mph 79.5% 0.00 in 197 W/m2
07:59 68.4 °F 61.6 °F 30.03 in NW 0.7 mph 2 mph 79% 0.00 in 213 W/m2
08:04 68.8 °F 61.9 °F 30.03 in West 1.4 mph 2 mph 78.5% 0.00 in 202 W/m2
08:09 69.1 °F 62 °F 30.03 in WSW 2.1 mph 2 mph 78.4% 0.00 in 198 W/m2
08:14 69.5 °F 62.4 °F 30.03 in North 2.6 mph 3 mph 78% 0.00 in 202 W/m2
08:19 69.8 °F 62.6 °F 30.03 in NE 3 mph 3 mph 77.8% 0.00 in 214 W/m2
08:24 70.2 °F 62.8 °F 30.03 in NNE 3.4 mph 5 mph 77.4% 0.00 in 280 W/m2
08:29 70.5 °F 63 °F 30.03 in NNE 3.1 mph 4 mph 77.1% 0.00 in 252 W/m2
08:34 70.8 °F 63.2 °F 30.03 in NE 1 mph 3 mph 77% 0.00 in 239 W/m2
08:39 71.2 °F 62.8 °F 30.03 in ENE 3.1 mph 2.2 mph 75% 0.00 in 230 W/m2
08:44 71.4 °F 63.1 °F 30.03 in ENE 4.6 mph 4.7 mph 75% 0.00 in 202 W/m2
08:49 71.6 °F 63.2 °F 30.03 in NE 4.1 mph 6 mph 74.7% 0.00 in 208 W/m2
08:54 71.8 °F 63.1 °F 30.03 in NE 4.7 mph 5 mph 74.4% 0.00 in 194 W/m2
08:59 71.8 °F 63.1 °F 30.04 in NE 4.2 mph 6 mph 74.4% 0.00 in 165 W/m2
09:04 71.9 °F 63.5 °F 30.04 in NE 4.1 mph 6 mph 75% 0.00 in 152 W/m2
09:09 72 °F 63.6 °F 30.04 in NNE 4.2 mph 5 mph 75% 0.00 in 183 W/m2
09:14 72.2 °F 64 °F 30.04 in NNE 4 mph 5 mph 75.4% 0.00 in 233 W/m2
09:19 72.5 °F 64.1 °F 30.04 in NNE 5.5 mph 5 mph 75% 0.00 in 263 W/m2
09:24 73 °F 64.5 °F 30.04 in NNE 5.2 mph 6 mph 74.8% 0.00 in 296 W/m2
09:29 73.5 °F 64.9 °F 30.04 in NNE 4.1 mph 6 mph 74.5% 0.00 in 387 W/m2
09:34 73.9 °F 65.1 °F 30.04 in NNE 3.3 mph 5 mph 74% 0.00 in 290 W/m2
09:39 74.3 °F 65.1 °F 30.04 in NNE 5.3 mph 3.6 mph 73% 0.00 in 242 W/m2
09:44 74.4 °F 65.2 °F 30.04 in NNE 3.8 mph 6 mph 73% 0.00 in 238 W/m2
09:49 74.5 °F 65.5 °F 30.04 in NNE 3.8 mph 5 mph 73.6% 0.00 in 544 W/m2
09:54 74.8 °F 65 °F 30.04 in NNE 2.4 mph 3 mph 71.6% 0.00 in 544 W/m2
09:59 75 °F 65.2 °F 30.04 in WNW 2.4 mph 3 mph 71.5% 0.00 in 222 W/m2
10:04 75.1 °F 64.6 °F 30.04 in SW 2.2 mph 1.8 mph 70% 0.00 in 213 W/m2
10:09 75.2 °F 64.7 °F 30.04 in West 2.5 mph 2 mph 69.8% 0.00 in 276 W/m2
10:14 75.5 °F 64.5 °F 30.04 in West 2.3 mph 3 mph 68.8% 0.00 in 234 W/m2
10:19 75.7 °F 64.7 °F 30.04 in West 1.6 mph 3 mph 68.8% 0.00 in 226 W/m2
10:24 75.8 °F 64.5 °F 30.04 in West 1.5 mph 2 mph 68% 0.00 in 261 W/m2
10:29 76 °F 64.9 °F 30.04 in West 2.4 mph 2 mph 68.5% 0.00 in 228 W/m2
10:34 76.1 °F 65 °F 30.04 in SW 3 mph 3 mph 68.5% 0.00 in 277 W/m2
10:39 76.2 °F 65.3 °F 30.04 in South 2.5 mph 4 mph 69% 0.00 in 431 W/m2
10:44 76.6 °F 65.8 °F 30.04 in SSE 3.7 mph 3.1 mph 69.2% 0.00 in 843 W/m2
10:49 77.4 °F 66.2 °F 30.04 in SSE 3.6 mph 2.9 mph 68.5% 0.00 in 739 W/m2
10:54 77.6 °F 66.2 °F 30.04 in SSE 4.4 mph 4 mph 67.9% 0.00 in 642 W/m2
10:59 77.7 °F 65.9 °F 30.04 in SSE 3.5 mph 5 mph 67% 0.00 in 578 W/m2
11:04 78.1 °F 66.1 °F 30.04 in SSE 3.4 mph 2.5 mph 66.9% 0.00 in 420 W/m2
11:09 78.2 °F 66.3 °F 30.04 in South 3.2 mph 2 mph 67% 0.00 in 401 W/m2
11:14 78.4 °F 66 °F 30.04 in South 2.9 mph 3 mph 65.8% 0.00 in 367 W/m2
11:19 78.6 °F 66 °F 30.04 in South 1.9 mph 4 mph 65.3% 0.00 in 499 W/m2
11:24 79.1 °F 66.9 °F 30.04 in WSW 2.8 mph 2 mph 66.3% 0.00 in 408 W/m2
11:29 79.5 °F 66.7 °F 30.03 in West 2.8 mph 2.2 mph 65% 0.00 in 298 W/m2
11:34 79.7 °F 66.8 °F 30.04 in SW 2.8 mph 4 mph 64.8% 0.00 in 206 W/m2
11:39 79.8 °F 66.5 °F 30.04 in SSW 1.8 mph 4 mph 64.2% 0.00 in 244 W/m2
11:44 79.8 °F 66.8 °F 30.03 in SSE 3.1 mph 4 mph 64.5% 0.00 in 313 W/m2
11:49 80.1 °F 67 °F 30.03 in ESE 2.9 mph 4 mph 64.5% 0.00 in 697 W/m2
11:54 80.3 °F 67.1 °F 30.03 in ESE 3.1 mph 2.5 mph 64.1% 0.00 in 416 W/m2
11:59 80.8 °F 67.5 °F 30.03 in SSE 4.4 mph 2.7 mph 64.2% 0.00 in 433 W/m2
12:04 80.9 °F 67.4 °F 30.03 in SSE 3.6 mph 2.9 mph 63.6% 0.00 in 397 W/m2
12:09 81 °F 67.5 °F 30.03 in SSE 4 mph 4 mph 63.8% 0.00 in 384 W/m2
12:14 81 °F 67.3 °F 30.03 in South 3.6 mph 5 mph 63.2% 0.00 in 307 W/m2
12:19 80.9 °F 67.1 °F 30.03 in South 3.7 mph 4 mph 63% 0.00 in 235 W/m2
12:24 80.9 °F 67.1 °F 30.03 in South 3.3 mph 5 mph 63% 0.00 in 295 W/m2
12:29 81.1 °F 67.3 °F 30.03 in South 3.3 mph 3 mph 63.1% 0.00 in 323 W/m2
12:34 81.4 °F 67.6 °F 30.03 in South 3.2 mph 4 mph 63% 0.00 in 787 W/m2
12:39 81.9 °F 68.1 °F 30.02 in South 4.3 mph 4 mph 63.1% 0.00 in 955 W/m2
12:44 83.2 °F 68.8 °F 30.02 in South 4.7 mph 5 mph 62.1% 0.00 in 955 W/m2
12:49 84 °F 68.5 °F 30.02 in SSW 3 mph 6 mph 59.8% 0.00 in 996 W/m2
12:54 84.6 °F 68.6 °F 30.02 in South 4.4 mph 3.4 mph 58.9% 0.00 in 1021 W/m2
12:59 85.2 °F 69.2 °F 30.01 in NE 5.1 mph 6 mph 58.9% 0.00 in 1031 W/m2
13:04 86.3 °F 69.5 °F 30.01 in North 6 mph 3.8 mph 57.6% 0.00 in 969 W/m2
13:09 86.8 °F 69.9 °F 30.01 in WNW 3.9 mph 6 mph 57.3% 0.00 in 916 W/m2
13:14 87.1 °F 69.5 °F 30.01 in NNW 4 mph 5 mph 56% 0.00 in 1050 W/m2
13:19 87.5 °F 69.4 °F 30.01 in WNW 3.7 mph 5 mph 55.2% 0.00 in 1055 W/m2
13:24 87.6 °F 68.6 °F 30.01 in WSW 3.8 mph 6 mph 53.5% 0.00 in 587 W/m2
13:29 87.4 °F 69.3 °F 30.01 in WSW 5.8 mph 5 mph 55% 0.00 in 568 W/m2
13:34 87.2 °F 68.6 °F 30.00 in North 5.9 mph 7 mph 54.1% 0.00 in 218 W/m2
13:39 87.1 °F 68.4 °F 30.00 in NNE 5.9 mph 7 mph 53.9% 0.00 in 301 W/m2
13:44 86.9 °F 68.3 °F 30.00 in NNE 5 mph 6 mph 54.1% 0.00 in 642 W/m2
13:49 87.2 °F 68.6 °F 30.00 in NNE 4.3 mph 6 mph 54.1% 0.00 in 841 W/m2
13:54 87.4 °F 69.1 °F 29.99 in North 6.4 mph 5.1 mph 54.6% 0.00 in 948 W/m2
13:59 87.7 °F 68.8 °F 29.99 in NNW 4.9 mph 8 mph 53.7% 0.00 in 948 W/m2
14:04 88.1 °F 69 °F 29.99 in NNW 4.2 mph 6 mph 53.3% 0.00 in 994 W/m2
14:09 88.9 °F 69.2 °F 29.99 in NNW 6.5 mph 4.9 mph 52.4% 0.00 in 963 W/m2
14:14 89.1 °F 69.6 °F 29.99 in North 5.6 mph 7 mph 52.8% 0.00 in 937 W/m2
14:19 89.5 °F 69.7 °F 29.99 in North 7.3 mph 4.9 mph 52.3% 0.00 in 957 W/m2
14:24 89.9 °F 68.9 °F 29.99 in NE 8.3 mph 8 mph 50.2% 0.00 in 953 W/m2
14:28 89.4 °F 69.1 °F 29.99 in ENE 6.6 mph 9 mph 51.4% 0.00 in 212 W/m2
14:34 88.9 °F 68.9 °F 29.99 in NNE 7.3 mph 9 mph 52% 0.00 in 225 W/m2
14:39 88.6 °F 68.8 °F 29.99 in North 5 mph 8 mph 52.1% 0.00 in 187 W/m2
14:44 88.3 °F 68.7 °F 29.99 in North 5.1 mph 6 mph 52.5% 0.00 in 257 W/m2
14:49 88.3 °F 68.4 °F 29.99 in North 3.6 mph 6 mph 52% 0.00 in 864 W/m2
14:54 88.6 °F 69 °F 29.99 in NNE 5.1 mph 5 mph 52.5% 0.00 in 859 W/m2
14:59 89.4 °F 69.3 °F 29.98 in North 4.9 mph 7 mph 51.7% 0.00 in 857 W/m2
15:04 89.7 °F 69.7 °F 29.98 in North 6.2 mph 7 mph 52% 0.00 in 837 W/m2
15:09 90 °F 69.3 °F 29.98 in NNW 3 mph 8 mph 50.8% 0.00 in 769 W/m2
15:14 90.1 °F 68.9 °F 29.98 in North 4.3 mph 5 mph 49.8% 0.00 in 758 W/m2
15:19 89.8 °F 68.7 °F 29.97 in North 6.5 mph 5 mph 50% 0.00 in 572 W/m2
15:24 89.2 °F 68.3 °F 29.97 in NW 6.4 mph 9 mph 50.3% 0.00 in 775 W/m2
15:29 89.5 °F 68.8 °F 29.97 in NW 6.5 mph 7 mph 50.7% 0.00 in 784 W/m2
15:34 90 °F 69.1 °F 29.97 in NW 9.2 mph 8 mph 50.3% 0.00 in 758 W/m2
15:39 90.3 °F 68.6 °F 29.97 in NW 5.7 mph 12 mph 49.1% 0.00 in 668 W/m2
15:44 90 °F 69.7 °F 29.97 in NW 8.1 mph 9 mph 51.4% 0.00 in 662 W/m2
15:49 90.1 °F 70.3 °F 29.97 in WNW 11.3 mph 13 mph 52.5% 0.00 in 700 W/m2
15:54 90.2 °F 70.4 °F 29.97 in WNW 10.6 mph 13 mph 52.5% 0.00 in 714 W/m2
15:59 90.5 °F 71 °F 29.97 in West 9.7 mph 13 mph 52.9% 0.00 in 723 W/m2
16:04 90.8 °F 71.1 °F 29.96 in West 11.3 mph 12 mph 52.7% 0.00 in 661 W/m2
16:09 90.8 °F 70.8 °F 29.96 in WNW 12.8 mph 9.8 mph 52.3% 0.00 in 661 W/m2
16:14 90.7 °F 71.2 °F 29.96 in WNW 11.3 mph 15 mph 53% 0.00 in 627 W/m2
16:19 90.9 °F 71 °F 29.96 in West 12.8 mph 16 mph 52.3% 0.00 in 634 W/m2
16:24 91 °F 70.7 °F 29.95 in West 10.6 mph 13 mph 51.5% 0.00 in 627 W/m2
16:29 91.1 °F 69.4 °F 29.96 in NW 10.6 mph 12 mph 49.1% 0.00 in 498 W/m2
16:34 90.5 °F 68.7 °F 29.96 in North 12.7 mph 9.4 mph 49% 0.00 in 528 W/m2
16:39 90.2 °F 69 °F 29.96 in North 12.8 mph 14 mph 49.8% 0.00 in 534 W/m2
16:44 90.4 °F 68.7 °F 29.96 in North 11.4 mph 9.2 mph 49% 0.00 in 524 W/m2
16:49 90.2 °F 69.8 °F 29.96 in North 14.9 mph 13 mph 51.3% 0.00 in 520 W/m2
16:54 89.7 °F 70.7 °F 29.97 in North 12.1 mph 16 mph 53.7% 0.00 in 559 W/m2
16:59 88.9 °F 70.2 °F 29.97 in North 11.5 mph 14 mph 54% 0.00 in 210 W/m2
17:04 88 °F 70.2 °F 29.97 in North 12.7 mph 14 mph 55.8% 0.00 in 174 W/m2
17:09 87.1 °F 70.3 °F 29.97 in North 9.1 mph 6.3 mph 57.5% 0.00 in 165 W/m2
17:14 86.4 °F 70 °F 29.97 in North 10.6 mph 11 mph 58.2% 0.00 in 242 W/m2
17:19 85.8 °F 69.9 °F 29.97 in North 8.7 mph 12 mph 59% 0.00 in 179 W/m2
17:24 85.4 °F 69.4 °F 29.97 in North 9.1 mph 11 mph 59% 0.00 in 334 W/m2
17:29 84.9 °F 69.4 °F 29.97 in North 10.3 mph 12 mph 59.8% 0.00 in 334 W/m2
17:34 85 °F 69.6 °F 29.97 in NNW 6.8 mph 12 mph 59.8% 0.00 in 317 W/m2
17:39 85.3 °F 69.6 °F 29.97 in North 6 mph 9 mph 59.6% 0.00 in 304 W/m2
17:44 85.3 °F 69.3 °F 29.97 in North 8.1 mph 8 mph 59% 0.00 in 284 W/m2
17:49 85.4 °F 69.6 °F 29.97 in North 9.1 mph 9 mph 59.5% 0.00 in 282 W/m2
17:54 85.3 °F 69.8 °F 29.98 in North 7.9 mph 10 mph 60% 0.00 in 261 W/m2
17:59 85.2 °F 69.7 °F 29.98 in NNE 8.8 mph 10 mph 60% 0.00 in 259 W/m2
18:04 85.3 °F 70.2 °F 29.98 in North 5.9 mph 10 mph 60.7% 0.00 in 215 W/m2
18:09 85.2 °F 70.4 °F 29.98 in North 6.2 mph 7 mph 61.3% 0.00 in 120 W/m2
18:14 85 °F 70.5 °F 29.99 in North 8.2 mph 8 mph 62% 0.00 in 143 W/m2
18:19 84.7 °F 70.3 °F 29.99 in North 8.3 mph 4.9 mph 62% 0.00 in 143 W/m2
18:24 84.6 °F 70.2 °F 29.99 in North 7.7 mph 9 mph 62.2% 0.00 in 106 W/m2
18:29 84.4 °F 69.2 °F 30.00 in North 10.6 mph 13 mph 60.4% 0.00 in 75 W/m2
18:34 83.7 °F 68.3 °F 30.00 in NNE 12.8 mph 13 mph 60% 0.00 in 66 W/m2
18:39 82.6 °F 67 °F 30.00 in ENE 17 mph 17 mph 59.3% 0.00 in 76 W/m2
18:44 82.1 °F 67 °F 30.00 in East 14.1 mph 10.5 mph 60.4% 0.00 in 82 W/m2
18:49 80.6 °F 67 °F 30.00 in East 10.5 mph 15 mph 63.4% 0.00 in 116 W/m2
18:54 79.9 °F 66.7 °F 30.00 in ESE 7.5 mph 13 mph 64.2% 0.00 in 131 W/m2
18:59 79.7 °F 66.9 °F 30.01 in SE 4.9 mph 9 mph 65% 0.00 in 148 W/m2
19:04 79.5 °F 67.1 °F 30.01 in NE 6.3 mph 6 mph 65.8% 0.00 in 149 W/m2
19:09 79.5 °F 67.6 °F 30.01 in NNW 5.2 mph 7 mph 67% 0.00 in 144 W/m2
19:14 79.2 °F 67.9 °F 30.01 in NNE 5.1 mph 7 mph 68.4% 0.00 in 130 W/m2
19:19 79 °F 67.9 °F 30.01 in East 3.7 mph 6 mph 69% 0.00 in 115 W/m2
19:24 79 °F 67.8 °F 30.01 in SSE 3.1 mph 4 mph 68.7% 0.00 in 79 W/m2
19:29 79 °F 67.9 °F 30.01 in South 3.1 mph 3 mph 69% 0.00 in 60 W/m2
19:34 78.9 °F 67.9 °F 30.01 in SSW 4 mph 2.7 mph 69% 0.00 in 43 W/m2
19:39 78.7 °F 67.9 °F 30.02 in SW 2.7 mph 5 mph 69.6% 0.00 in 29 W/m2
19:44 78.5 °F 68.1 °F 30.02 in WSW 3.6 mph 3 mph 70.4% 0.00 in 17 W/m2
19:49 78.3 °F 68.6 °F 30.02 in WSW 3.6 mph 3.4 mph 72.2% 0.00 in 8 W/m2
19:54 77.7 °F 68.9 °F 30.02 in SSW 4.6 mph 5 mph 74.5% 0.00 in 3 W/m2
19:59 77.1 °F 68.8 °F 30.03 in SSE 3.6 mph 5 mph 75.9% 0.00 in 1 W/m2
20:04 76.5 °F 69.1 °F 30.03 in SSE 3.5 mph 4 mph 78% 0.00 in 0 W/m2
20:09 76.2 °F 68.9 °F 30.03 in SSE 2.6 mph 2 mph 78.3% 0.00 in 0 W/m2
20:14 76.1 °F 69 °F 30.03 in South 3.2 mph 3 mph 78.9% 0.00 in 0 W/m2
20:19 75.7 °F 69.1 °F 30.03 in South 3.4 mph 4 mph 80% 0.00 in 0 W/m2
20:24 75.3 °F 68.9 °F 30.03 in South 2.5 mph 3 mph 80.5% 0.00 in 0 W/m2
20:29 75.1 °F 69.1 °F 30.03 in SW 3.7 mph 3 mph 81.4% 0.00 in 0 W/m2
20:34 74.8 °F 69.1 °F 30.03 in SSW 3.6 mph 4 mph 82.6% 0.00 in 0 W/m2
20:39 74.4 °F 69.1 °F 30.03 in South 3.5 mph 2.5 mph 83.4% 0.00 in 0 W/m2
20:44 74.1 °F 69 °F 30.03 in South 3.3 mph 4 mph 84% 0.00 in 0 W/m2
20:49 73.8 °F 69 °F 30.04 in SSE 5 mph 4 mph 85% 0.00 in 0 W/m2
20:54 73.6 °F 68.8 °F 30.04 in SSE 4 mph 6 mph 85% 0.00 in 0 W/m2
20:58 73.4 °F 68.9 °F 30.04 in SSE 3.5 mph 5 mph 85.7% 0.00 in 0 W/m2
21:04 73.2 °F 68.5 °F 30.04 in South 1.9 mph 4 mph 85.2% 0.00 in 0 W/m2
21:09 73.1 °F 68.6 °F 30.04 in SW 1.4 mph 2 mph 85.8% 0.00 in 0 W/m2
21:14 73 °F 68.5 °F 30.04 in SSW 2 mph 2 mph 86% 0.00 in 0 W/m2
21:19 72.9 °F 68.1 °F 30.04 in SSW 2.3 mph 1.8 mph 85.1% 0.00 in 0 W/m2
21:24 72.7 °F 68.2 °F 30.04 in SW 2.9 mph 2.2 mph 86% 0.00 in 0 W/m2
21:29 72.4 °F 68 °F 30.04 in SSW 3.1 mph 4 mph 86% 0.00 in 0 W/m2
21:34 72.1 °F 67.6 °F 30.04 in South 3.3 mph 3 mph 86% 0.00 in 0 W/m2
21:39 71.7 °F 67.6 °F 30.04 in South 3.8 mph 4 mph 86.7% 0.00 in 0 W/m2
21:44 71.5 °F 67.5 °F 30.04 in South 3.1 mph 5 mph 87.2% 0.00 in 0 W/m2
21:49 71.1 °F 67.4 °F 30.04 in SSE 3.8 mph 2.9 mph 88% 0.00 in 0 W/m2
21:54 70.9 °F 67.4 °F 30.04 in SSE 3.5 mph 5 mph 88.8% 0.00 in 0 W/m2
21:59 70.7 °F 67 °F 30.04 in SSE 3.1 mph 5 mph 88% 0.00 in 0 W/m2
22:04 70.7 °F 67 °F 30.04 in South 2.9 mph 3 mph 88% 0.00 in 0 W/m2
22:09 70.4 °F 67 °F 30.04 in South 3.6 mph 4 mph 89% 0.00 in 0 W/m2
22:14 70.3 °F 66.9 °F 30.05 in South 2.4 mph 5 mph 89% 0.00 in 0 W/m2
22:19 70.3 °F 66.9 °F 30.05 in West 2.2 mph 3 mph 89% 0.00 in 0 W/m2
22:24 70.2 °F 66.8 °F 30.05 in West 2.2 mph 1.6 mph 89% 0.00 in 0 W/m2
22:29 70.2 °F 66.8 °F 30.05 in WSW 3 mph 2.5 mph 89% 0.00 in 0 W/m2
22:34 70 °F 66.6 °F 30.05 in WSW 2.1 mph 3 mph 89% 0.00 in 0 W/m2
22:39 69.9 °F 66.5 °F 30.05 in WSW 0.9 mph 3 mph 89% 0.00 in 0 W/m2
22:44 69.8 °F 66.4 °F 30.05 in WSW 0.4 mph 1 mph 89% 0.00 in 0 W/m2
22:49 69.7 °F 66.3 °F 30.05 in SW 2 mph 2 mph 89% 0.00 in 0 W/m2
22:54 69.6 °F 66.3 °F 30.05 in WSW 1.1 mph 2 mph 89.2% 0.00 in 0 W/m2
22:59 69.5 °F 66.4 °F 30.05 in WSW 2.7 mph 2 mph 89.7% 0.00 in 0 W/m2
23:04 69.4 °F 66.1 °F 30.05 in SW 2.3 mph 3 mph 89% 0.00 in 0 W/m2
23:09 69.4 °F 66.1 °F 30.06 in SW 2 mph 2 mph 89% 0.00 in 0 W/m2
23:14 69.4 °F 66.1 °F 30.06 in ENE 3 mph 2.2 mph 89.3% 0.00 in 0 W/m2
23:19 69.3 °F 66.2 °F 30.06 in South 3.1 mph 3 mph 90% 0.00 in 0 W/m2
23:24 69.2 °F 66.1 °F 30.06 in South 2.3 mph 3 mph 90% 0.00 in 0 W/m2
23:29 69.1 °F 66.2 °F 30.06 in SSE 1.9 mph 2 mph 90.7% 0.00 in 0 W/m2
23:34 68.9 °F 66.2 °F 30.06 in SE 2.3 mph 2 mph 91% 0.00 in 0 W/m2
23:39 68.9 °F 66.2 °F 30.06 in SSE 2.2 mph 2 mph 91% 0.00 in 0 W/m2
23:44 68.8 °F 66.1 °F 30.06 in SSE 2.2 mph 2 mph 91% 0.00 in 0 W/m2
23:49 68.7 °F 66 °F 30.06 in WSW 1.9 mph 2 mph 91% 0.00 in 0 W/m2
23:54 68.6 °F 65.9 °F 30.06 in NW 1.3 mph 2 mph 91% 0.00 in 0 W/m2
23:59 68.5 °F 66.3 °F 30.06 in NE 2.4 mph 2 mph 92.6% 0.00 in 0 W/m2
Knjazevac, Serbia
Compliments of Weather Underground - 4 mb